Terminal Aerodrome Forecast
Issued by NWS

Home | Current Version | Previous Version | Text Only | Print | Product List | Glossary On
Versions: 1 2 3 4 5 6 7 8 9 10 11 12 13 14
000
FTUS45 KGGW 311728
TAFGDV
TAF
KGDV 311728Z 3118/0118 32021G29KT P6SM -SHRA SCT012 OVC025
     FM010000 33025G35KT P6SM VCTS SCT015 BKN035CB
     FM010300 31009KT P6SM BKN035
     FM010600 30008KT P6SM SCT050
     FM011200 30007KT P6SM FEW150
      AMD LTD TO CLD VIS AND WIND=

USA.gov is the U.S. government's official web portal to all federal, state and local government web resources and services.